sensor_id;sensor_type;location;lat;lon;timestamp;temperature;humidity
20829;DHT22;10575;50.124;8.582;2023-04-25T00:01:14;11.40;99.90
20829;DHT22;10575;50.124;8.582;2023-04-25T00:03:40;11.40;99.90
20829;DHT22;10575;50.124;8.582;2023-04-25T00:06:06;11.50;99.90
20829;DHT22;10575;50.124;8.582;2023-04-25T00:08:32;11.40;99.90
20829;DHT22;10575;50.124;8.582;2023-04-25T00:10:58;11.40;99.90
20829;DHT22;10575;50.124;8.582;2023-04-25T00:13:24;11.40;99.90
20829;DHT22;10575;50.124;8.582;2023-04-25T00:15:51;11.40;99.90
20829;DHT22;10575;50.124;8.582;2023-04-25T00:18:18;11.40;99.90
20829;DHT22;10575;50.124;8.582;2023-04-25T00:20:44;11.50;99.90
20829;DHT22;10575;50.124;8.582;2023-04-25T00:23:21;11.50;99.90
20829;DHT22;10575;50.124;8.582;2023-04-25T00:25:48;11.50;99.90
20829;DHT22;10575;50.124;8.582;2023-04-25T00:28:14;11.50;99.90
20829;DHT22;10575;50.124;8.582;2023-04-25T00:30:40;11.50;99.90
20829;DHT22;10575;50.124;8.582;2023-04-25T00:33:07;11.40;99.90
20829;DHT22;10575;50.124;8.582;2023-04-25T00:35:33;11.40;99.90
20829;DHT22;10575;50.124;8.582;2023-04-25T00:37:58;11.40;99.90
20829;DHT22;10575;50.124;8.582;2023-04-25T00:40:24;11.50;99.90
20829;DHT22;10575;50.124;8.582;2023-04-25T00:42:51;11.40;99.90
20829;DHT22;10575;50.124;8.582;2023-04-25T00:45:17;11.30;99.90
20829;DHT22;10575;50.124;8.582;2023-04-25T00:47:44;11.40;99.90
20829;DHT22;10575;50.124;8.582;2023-04-25T00:50:11;11.40;99.90
20829;DHT22;10575;50.124;8.582;2023-04-25T00:52:39;11.40;99.90
20829;DHT22;10575;50.124;8.582;2023-04-25T00:55:06;11.20;99.90
20829;DHT22;10575;50.124;8.582;2023-04-25T00:57:31;11.30;99.90
20829;DHT22;10575;50.124;8.582;2023-04-25T00:59:58;11.20;99.90
20829;DHT22;10575;50.124;8.582;2023-04-25T01:02:24;11.10;99.90
20829;DHT22;10575;50.124;8.582;2023-04-25T01:04:51;10.90;99.90
20829;DHT22;10575;50.124;8.582;2023-04-25T01:07:19;10.70;99.90
20829;DHT22;10575;50.124;8.582;2023-04-25T01:09:46;10.70;99.90
20829;DHT22;10575;50.124;8.582;2023-04-25T01:12:11;10.70;99.90
20829;DHT22;10575;50.124;8.582;2023-04-25T01:14:37;10.60;99.90
20829;DHT22;10575;50.124;8.582;2023-04-25T01:17:03;10.50;99.90
20829;DHT22;10575;50.124;8.582;2023-04-25T01:19:29;10.40;99.90
20829;DHT22;10575;50.124;8.582;2023-04-25T01:21:55;10.50;99.90
20829;DHT22;10575;50.124;8.582;2023-04-25T01:24:21;10.60;99.90
20829;DHT22;10575;50.124;8.582;2023-04-25T01:26:46;10.60;99.90
20829;DHT22;10575;50.124;8.582;2023-04-25T01:29:16;10.70;99.90
20829;DHT22;10575;50.124;8.582;2023-04-25T01:31:42;10.80;99.90
20829;DHT22;10575;50.124;8.582;2023-04-25T01:34:09;11.00;99.90
20829;DHT22;10575;50.124;8.582;2023-04-25T01:36:34;11.10;99.90
20829;DHT22;10575;50.124;8.582;2023-04-25T01:39:00;11.10;99.90
20829;DHT22;10575;50.124;8.582;2023-04-25T01:41:27;11.10;99.90
20829;DHT22;10575;50.124;8.582;2023-04-25T01:43:52;11.10;99.90
20829;DHT22;10575;50.124;8.582;2023-04-25T01:46:18;11.00;99.90
20829;DHT22;10575;50.124;8.582;2023-04-25T01:48:44;10.90;99.90
20829;DHT22;10575;50.124;8.582;2023-04-25T01:51:10;11.00;99.90
20829;DHT22;10575;50.124;8.582;2023-04-25T01:53:37;11.10;99.90
20829;DHT22;10575;50.124;8.582;2023-04-25T01:56:03;11.10;99.90
20829;DHT22;10575;50.124;8.582;2023-04-25T01:58:29;11.10;99.90
20829;DHT22;10575;50.124;8.582;2023-04-25T02:00:54;11.10;99.90
20829;DHT22;10575;50.124;8.582;2023-04-25T02:03:20;11.00;99.90
20829;DHT22;10575;50.124;8.582;2023-04-25T02:05:45;11.00;99.90
20829;DHT22;10575;50.124;8.582;2023-04-25T02:08:11;11.00;99.90
20829;DHT22;10575;50.124;8.582;2023-04-25T02:10:36;10.90;99.90
20829;DHT22;10575;50.124;8.582;2023-04-25T02:13:03;11.00;99.90
20829;DHT22;10575;50.124;8.582;2023-04-25T02:15:29;10.90;99.90
20829;DHT22;10575;50.124;8.582;2023-04-25T02:17:55;10.80;99.90
20829;DHT22;10575;50.124;8.582;2023-04-25T02:20:22;10.60;99.90
20829;DHT22;10575;50.124;8.582;2023-04-25T02:22:48;10.60;99.90
20829;DHT22;10575;50.124;8.582;2023-04-25T02:25:14;10.70;99.90
20829;DHT22;10575;50.124;8.582;2023-04-25T02:27:41;10.80;99.90
20829;DHT22;10575;50.124;8.582;2023-04-25T02:30:07;10.70;99.90
20829;DHT22;10575;50.124;8.582;2023-04-25T02:32:33;10.60;99.90
20829;DHT22;10575;50.124;8.582;2023-04-25T02:35:00;10.50;99.90
20829;DHT22;10575;50.124;8.582;2023-04-25T02:37:29;10.30;99.90
20829;DHT22;10575;50.124;8.582;2023-04-25T02:39:55;10.30;99.90
20829;DHT22;10575;50.124;8.582;2023-04-25T02:42:20;10.20;99.90
20829;DHT22;10575;50.124;8.582;2023-04-25T02:44:46;10.10;99.90
20829;DHT22;10575;50.124;8.582;2023-04-25T02:47:11;10.00;99.90
20829;DHT22;10575;50.124;8.582;2023-04-25T02:49:37;9.90;99.90
20829;DHT22;10575;50.124;8.582;2023-04-25T02:52:02;9.90;99.90
20829;DHT22;10575;50.124;8.582;2023-04-25T02:54:28;9.90;99.90
20829;DHT22;10575;50.124;8.582;2023-04-25T02:56:53;9.90;99.90
20829;DHT22;10575;50.124;8.582;2023-04-25T02:59:19;10.00;99.90
20829;DHT22;10575;50.124;8.582;2023-04-25T03:01:44;9.90;99.90
20829;DHT22;10575;50.124;8.582;2023-04-25T03:04:10;9.80;99.90
20829;DHT22;10575;50.124;8.582;2023-04-25T03:06:36;9.80;99.90
20829;DHT22;10575;50.124;8.582;2023-04-25T03:09:01;9.90;99.90
20829;DHT22;10575;50.124;8.582;2023-04-25T03:11:27;9.90;99.90
20829;DHT22;10575;50.124;8.582;2023-04-25T03:13:52;10.00;99.90
20829;DHT22;10575;50.124;8.582;2023-04-25T03:16:18;10.10;99.90
20829;DHT22;10575;50.124;8.582;2023-04-25T03:18:43;10.10;99.90
20829;DHT22;10575;50.124;8.582;2023-04-25T03:21:09;10.20;99.90
20829;DHT22;10575;50.124;8.582;2023-04-25T03:23:34;10.30;99.90
20829;DHT22;10575;50.124;8.582;2023-04-25T03:26:00;10.20;99.90
20829;DHT22;10575;50.124;8.582;2023-04-25T03:28:25;10.20;99.90
20829;DHT22;10575;50.124;8.582;2023-04-25T03:30:51;10.30;99.90
20829;DHT22;10575;50.124;8.582;2023-04-25T03:33:16;10.20;99.90
20829;DHT22;10575;50.124;8.582;2023-04-25T03:35:42;10.00;99.90
20829;DHT22;10575;50.124;8.582;2023-04-25T03:38:08;9.90;99.90
20829;DHT22;10575;50.124;8.582;2023-04-25T03:40:33;9.80;99.90
20829;DHT22;10575;50.124;8.582;2023-04-25T03:42:59;9.90;99.90
20829;DHT22;10575;50.124;8.582;2023-04-25T03:45:25;9.80;99.90
20829;DHT22;10575;50.124;8.582;2023-04-25T03:47:50;9.80;99.90
20829;DHT22;10575;50.124;8.582;2023-04-25T03:50:16;9.60;99.90
20829;DHT22;10575;50.124;8.582;2023-04-25T03:52:43;9.50;99.90
20829;DHT22;10575;50.124;8.582;2023-04-25T03:55:09;9.40;99.90
20829;DHT22;10575;50.124;8.582;2023-04-25T03:57:35;9.30;99.90
20829;DHT22;10575;50.124;8.582;2023-04-25T04:00:00;9.10;99.90
20829;DHT22;10575;50.124;8.582;2023-04-25T04:02:26;9.20;99.90
20829;DHT22;10575;50.124;8.582;2023-04-25T04:04:51;9.20;99.90
20829;DHT22;10575;50.124;8.582;2023-04-25T04:07:17;9.20;99.90
20829;DHT22;10575;50.124;8.582;2023-04-25T04:09:42;9.10;99.90
20829;DHT22;10575;50.124;8.582;2023-04-25T04:12:08;9.10;99.90
20829;DHT22;10575;50.124;8.582;2023-04-25T04:14:33;9.10;99.90
20829;DHT22;10575;50.124;8.582;2023-04-25T04:16:59;9.20;99.90
20829;DHT22;10575;50.124;8.582;2023-04-25T04:19:25;9.30;99.90
20829;DHT22;10575;50.124;8.582;2023-04-25T04:21:51;9.40;99.90
20829;DHT22;10575;50.124;8.582;2023-04-25T04:24:16;9.40;99.90
20829;DHT22;10575;50.124;8.582;2023-04-25T04:26:42;9.30;99.90
20829;DHT22;10575;50.124;8.582;2023-04-25T04:29:10;9.20;99.90
20829;DHT22;10575;50.124;8.582;2023-04-25T04:31:36;9.30;99.90
20829;DHT22;10575;50.124;8.582;2023-04-25T04:34:02;9.40;99.90
20829;DHT22;10575;50.124;8.582;2023-04-25T04:36:29;9.50;99.90
20829;DHT22;10575;50.124;8.582;2023-04-25T04:38:54;9.60;99.90
20829;DHT22;10575;50.124;8.582;2023-04-25T04:41:21;9.70;99.90
20829;DHT22;10575;50.124;8.582;2023-04-25T04:43:47;9.70;99.90
20829;DHT22;10575;50.124;8.582;2023-04-25T04:46:13;9.60;99.90
20829;DHT22;10575;50.124;8.582;2023-04-25T04:48:38;9.40;99.90
20829;DHT22;10575;50.124;8.582;2023-04-25T04:51:05;9.30;99.90
20829;DHT22;10575;50.124;8.582;2023-04-25T04:53:31;9.10;99.90
20829;DHT22;10575;50.124;8.582;2023-04-25T04:55:57;9.10;99.90
20829;DHT22;10575;50.124;8.582;2023-04-25T04:58:23;9.30;99.90
20829;DHT22;10575;50.124;8.582;2023-04-25T05:00:48;9.50;99.90
20829;DHT22;10575;50.124;8.582;2023-04-25T05:03:14;9.80;99.90
20829;DHT22;10575;50.124;8.582;2023-04-25T05:05:39;10.00;99.90
20829;DHT22;10575;50.124;8.582;2023-04-25T05:08:05;10.20;99.90
20829;DHT22;10575;50.124;8.582;2023-04-25T05:10:31;10.30;99.90
20829;DHT22;10575;50.124;8.582;2023-04-25T05:12:57;10.40;99.90
20829;DHT22;10575;50.124;8.582;2023-04-25T05:15:22;10.60;99.90
20829;DHT22;10575;50.124;8.582;2023-04-25T05:17:48;10.70;99.90
20829;DHT22;10575;50.124;8.582;2023-04-25T05:20:13;10.80;99.90
20829;DHT22;10575;50.124;8.582;2023-04-25T05:22:39;10.90;99.90
20829;DHT22;10575;50.124;8.582;2023-04-25T05:25:07;11.10;99.90
20829;DHT22;10575;50.124;8.582;2023-04-25T05:27:33;11.40;99.90
20829;DHT22;10575;50.124;8.582;2023-04-25T05:29:59;11.60;99.90
20829;DHT22;10575;50.124;8.582;2023-04-25T05:32:24;11.80;99.90
20829;DHT22;10575;50.124;8.582;2023-04-25T05:34:50;11.90;99.90
20829;DHT22;10575;50.124;8.582;2023-04-25T05:37:16;12.10;99.90
20829;DHT22;10575;50.124;8.582;2023-04-25T05:39:42;12.30;99.90
20829;DHT22;10575;50.124;8.582;2023-04-25T05:42:07;12.40;99.90
20829;DHT22;10575;50.124;8.582;2023-04-25T05:44:33;12.40;99.90
20829;DHT22;10575;50.124;8.582;2023-04-25T05:46:59;12.40;99.90
20829;DHT22;10575;50.124;8.582;2023-04-25T05:49:24;12.10;99.90
20829;DHT22;10575;50.124;8.582;2023-04-25T05:51:50;11.90;99.90
20829;DHT22;10575;50.124;8.582;2023-04-25T05:54:15;12.10;99.90
20829;DHT22;10575;50.124;8.582;2023-04-25T05:56:41;12.10;99.90
20829;DHT22;10575;50.124;8.582;2023-04-25T05:59:06;11.90;99.90
20829;DHT22;10575;50.124;8.582;2023-04-25T06:01:32;12.10;99.90
20829;DHT22;10575;50.124;8.582;2023-04-25T06:03:57;12.30;99.90
20829;DHT22;10575;50.124;8.582;2023-04-25T06:06:23;12.70;99.90
20829;DHT22;10575;50.124;8.582;2023-04-25T06:08:48;13.10;99.90
20829;DHT22;10575;50.124;8.582;2023-04-25T06:11:14;13.60;99.90
20829;DHT22;10575;50.124;8.582;2023-04-25T06:13:39;14.00;99.90
20829;DHT22;10575;50.124;8.582;2023-04-25T06:16:05;14.20;99.90
20829;DHT22;10575;50.124;8.582;2023-04-25T06:18:31;14.30;99.90
20829;DHT22;10575;50.124;8.582;2023-04-25T06:20:56;14.40;99.90
20829;DHT22;10575;50.124;8.582;2023-04-25T06:23:22;14.70;99.90
20829;DHT22;10575;50.124;8.582;2023-04-25T06:25:48;15.10;99.90
20829;DHT22;10575;50.124;8.582;2023-04-25T06:28:13;15.40;99.90
20829;DHT22;10575;50.124;8.582;2023-04-25T06:30:39;15.50;99.90
20829;DHT22;10575;50.124;8.582;2023-04-25T06:33:04;15.70;99.90
20829;DHT22;10575;50.124;8.582;2023-04-25T06:35:30;15.70;99.90
20829;DHT22;10575;50.124;8.582;2023-04-25T06:37:55;15.70;99.90
20829;DHT22;10575;50.124;8.582;2023-04-25T06:40:21;15.70;99.90
20829;DHT22;10575;50.124;8.582;2023-04-25T06:42:46;15.50;99.90
20829;DHT22;10575;50.124;8.582;2023-04-25T06:45:12;15.50;99.90
20829;DHT22;10575;50.124;8.582;2023-04-25T06:47:37;15.80;99.90
20829;DHT22;10575;50.124;8.582;2023-04-25T06:50:03;15.90;99.90
20829;DHT22;10575;50.124;8.582;2023-04-25T06:52:29;15.80;99.90
20829;DHT22;10575;50.124;8.582;2023-04-25T06:54:55;15.50;99.90
20829;DHT22;10575;50.124;8.582;2023-04-25T06:57:20;15.30;99.90
20829;DHT22;10575;50.124;8.582;2023-04-25T06:59:46;15.20;99.90
20829;DHT22;10575;50.124;8.582;2023-04-25T07:02:11;15.10;99.90
20829;DHT22;10575;50.124;8.582;2023-04-25T07:04:37;15.10;99.90
20829;DHT22;10575;50.124;8.582;2023-04-25T07:07:02;15.10;99.90
20829;DHT22;10575;50.124;8.582;2023-04-25T07:09:29;15.00;99.90
20829;DHT22;10575;50.124;8.582;2023-04-25T07:11:55;14.80;99.90
20829;DHT22;10575;50.124;8.582;2023-04-25T07:14:20;14.80;99.90
20829;DHT22;10575;50.124;8.582;2023-04-25T07:16:46;14.40;99.90
20829;DHT22;10575;50.124;8.582;2023-04-25T07:19:11;14.00;99.90
20829;DHT22;10575;50.124;8.582;2023-04-25T07:21:37;14.30;99.90
20829;DHT22;10575;50.124;8.582;2023-04-25T07:24:03;15.40;99.90
20829;DHT22;10575;50.124;8.582;2023-04-25T07:26:28;16.30;99.90
20829;DHT22;10575;50.124;8.582;2023-04-25T07:28:54;16.10;99.90
20829;DHT22;10575;50.124;8.582;2023-04-25T07:31:20;16.30;99.90
20829;DHT22;10575;50.124;8.582;2023-04-25T07:33:46;17.50;99.90
20829;DHT22;10575;50.124;8.582;2023-04-25T07:36:12;19.50;99.90
20829;DHT22;10575;50.124;8.582;2023-04-25T07:38:38;21.80;99.90
20829;DHT22;10575;50.124;8.582;2023-04-25T07:41:04;22.70;98.60
20829;DHT22;10575;50.124;8.582;2023-04-25T07:43:30;24.50;92.10
20829;DHT22;10575;50.124;8.582;2023-04-25T07:45:56;26.60;81.10
20829;DHT22;10575;50.124;8.582;2023-04-25T07:48:21;28.10;72.10
20829;DHT22;10575;50.124;8.582;2023-04-25T07:50:47;29.70;61.80
20829;DHT22;10575;50.124;8.582;2023-04-25T07:53:12;31.20;55.80
20829;DHT22;10575;50.124;8.582;2023-04-25T07:55:38;32.80;48.40
20829;DHT22;10575;50.124;8.582;2023-04-25T07:58:06;34.40;44.40
20829;DHT22;10575;50.124;8.582;2023-04-25T08:00:32;34.40;40.70
20829;DHT22;10575;50.124;8.582;2023-04-25T08:03:01;36.70;36.90
20829;DHT22;10575;50.124;8.582;2023-04-25T08:05:28;36.60;35.00
20829;DHT22;10575;50.124;8.582;2023-04-25T08:07:53;35.40;33.50
20829;DHT22;10575;50.124;8.582;2023-04-25T08:10:19;30.90;39.50
20829;DHT22;10575;50.124;8.582;2023-04-25T08:12:44;28.80;40.60
20829;DHT22;10575;50.124;8.582;2023-04-25T08:15:10;27.20;44.50
20829;DHT22;10575;50.124;8.582;2023-04-25T08:17:36;26.30;43.80
20829;DHT22;10575;50.124;8.582;2023-04-25T08:20:02;24.80;47.50
20829;DHT22;10575;50.124;8.582;2023-04-25T08:22:30;23.90;49.80
20829;DHT22;10575;50.124;8.582;2023-04-25T08:24:56;22.30;53.30
20829;DHT22;10575;50.124;8.582;2023-04-25T08:27:21;21.40;57.10
20829;DHT22;10575;50.124;8.582;2023-04-25T08:29:47;20.50;54.00
20829;DHT22;10575;50.124;8.582;2023-04-25T08:32:13;19.90;58.10
20829;DHT22;10575;50.124;8.582;2023-04-25T08:34:39;19.00;57.40
20829;DHT22;10575;50.124;8.582;2023-04-25T08:37:08;17.40;60.70
20829;DHT22;10575;50.124;8.582;2023-04-25T08:39:33;16.50;64.30
20829;DHT22;10575;50.124;8.582;2023-04-25T08:41:59;18.50;66.90
20829;DHT22;10575;50.124;8.582;2023-04-25T08:44:27;22.10;58.20
20829;DHT22;10575;50.124;8.582;2023-04-25T08:46:53;22.70;53.10
20829;DHT22;10575;50.124;8.582;2023-04-25T08:49:20;21.30;57.10
20829;DHT22;10575;50.124;8.582;2023-04-25T08:51:47;20.40;58.50
20829;DHT22;10575;50.124;8.582;2023-04-25T08:54:14;20.70;59.60
20829;DHT22;10575;50.124;8.582;2023-04-25T08:56:43;20.40;57.60
20829;DHT22;10575;50.124;8.582;2023-04-25T08:59:10;19.30;60.90
20829;DHT22;10575;50.124;8.582;2023-04-25T09:01:35;18.30;64.90
20829;DHT22;10575;50.124;8.582;2023-04-25T09:04:01;18.30;65.00
20829;DHT22;10575;50.124;8.582;2023-04-25T09:06:29;18.30;66.60
20829;DHT22;10575;50.124;8.582;2023-04-25T09:09:01;20.60;62.20
20829;DHT22;10575;50.124;8.582;2023-04-25T09:11:27;24.00;56.70
20829;DHT22;10575;50.124;8.582;2023-04-25T09:14:19;26.20;49.70
20829;DHT22;10575;50.124;8.582;2023-04-25T09:19:28;23.10;51.80
20829;DHT22;10575;50.124;8.582;2023-04-25T09:21:55;21.20;56.00
20829;DHT22;10575;50.124;8.582;2023-04-25T09:24:41;19.60;59.30
20829;DHT22;10575;50.124;8.582;2023-04-25T09:27:18;18.80;62.80
20829;DHT22;10575;50.124;8.582;2023-04-25T09:29:44;18.60;65.40
20829;DHT22;10575;50.124;8.582;2023-04-25T09:32:19;18.40;62.20
20829;DHT22;10575;50.124;8.582;2023-04-25T09:34:49;17.30;65.10
20829;DHT22;10575;50.124;8.582;2023-04-25T09:39:53;17.20;68.30
20829;DHT22;10575;50.124;8.582;2023-04-25T09:42:22;17.00;69.30
20829;DHT22;10575;50.124;8.582;2023-04-25T09:44:52;17.40;69.50
20829;DHT22;10575;50.124;8.582;2023-04-25T09:47:17;17.30;70.30
20829;DHT22;10575;50.124;8.582;2023-04-25T09:49:44;17.20;67.30
20829;DHT22;10575;50.124;8.582;2023-04-25T09:52:17;17.00;67.00
20829;DHT22;10575;50.124;8.582;2023-04-25T09:54:43;16.30;67.90
20829;DHT22;10575;50.124;8.582;2023-04-25T09:57:19;15.70;68.80
20829;DHT22;10575;50.124;8.582;2023-04-25T09:59:49;15.40;72.20
20829;DHT22;10575;50.124;8.582;2023-04-25T10:02:18;15.30;74.40
20829;DHT22;10575;50.124;8.582;2023-04-25T10:04:48;15.80;73.50
20829;DHT22;10575;50.124;8.582;2023-04-25T10:07:15;15.80;73.80
20829;DHT22;10575;50.124;8.582;2023-04-25T10:09:42;15.90;74.10
20829;DHT22;10575;50.124;8.582;2023-04-25T10:12:11;16.30;74.70
20829;DHT22;10575;50.124;8.582;2023-04-25T10:14:38;16.90;68.90
20829;DHT22;10575;50.124;8.582;2023-04-25T10:17:04;16.80;71.00
20829;DHT22;10575;50.124;8.582;2023-04-25T10:19:29;16.40;71.10
20829;DHT22;10575;50.124;8.582;2023-04-25T10:22:13;16.50;71.30
20829;DHT22;10575;50.124;8.582;2023-04-25T10:24:40;16.60;71.20
20829;DHT22;10575;50.124;8.582;2023-04-25T10:27:07;16.10;71.40
20829;DHT22;10575;50.124;8.582;2023-04-25T10:29:32;15.80;75.00
20829;DHT22;10575;50.124;8.582;2023-04-25T10:31:58;15.20;76.20
20829;DHT22;10575;50.124;8.582;2023-04-25T10:34:36;15.00;77.50
20829;DHT22;10575;50.124;8.582;2023-04-25T10:37:03;14.80;78.00
20829;DHT22;10575;50.124;8.582;2023-04-25T10:39:29;14.70;77.90
20829;DHT22;10575;50.124;8.582;2023-04-25T10:42:02;14.20;77.50
20829;DHT22;10575;50.124;8.582;2023-04-25T10:44:30;13.90;83.80
20829;DHT22;10575;50.124;8.582;2023-04-25T10:46:57;13.30;86.10
20829;DHT22;10575;50.124;8.582;2023-04-25T10:49:37;12.90;90.40
20829;DHT22;10575;50.124;8.582;2023-04-25T10:52:17;12.70;90.70
20829;DHT22;10575;50.124;8.582;2023-04-25T10:54:47;12.70;91.20
20829;DHT22;10575;50.124;8.582;2023-04-25T10:57:44;13.00;92.70
20829;DHT22;10575;50.124;8.582;2023-04-25T11:00:19;13.10;93.60
20829;DHT22;10575;50.124;8.582;2023-04-25T11:02:52;13.20;92.70
20829;DHT22;10575;50.124;8.582;2023-04-25T11:05:32;13.50;91.80
20829;DHT22;10575;50.124;8.582;2023-04-25T11:07:58;13.70;89.90
20829;DHT22;10575;50.124;8.582;2023-04-25T11:10:32;13.70;90.50
20829;DHT22;10575;50.124;8.582;2023-04-25T11:12:58;13.70;90.20
20829;DHT22;10575;50.124;8.582;2023-04-25T11:15:26;13.40;92.00
20829;DHT22;10575;50.124;8.582;2023-04-25T11:17:55;13.30;90.40
20829;DHT22;10575;50.124;8.582;2023-04-25T11:20:21;13.00;90.20
20829;DHT22;10575;50.124;8.582;2023-04-25T11:22:48;12.70;91.60
20829;DHT22;10575;50.124;8.582;2023-04-25T11:25:15;12.60;91.50
20829;DHT22;10575;50.124;8.582;2023-04-25T11:27:58;12.50;91.50
20829;DHT22;10575;50.124;8.582;2023-04-25T11:30:25;12.60;93.20
20829;DHT22;10575;50.124;8.582;2023-04-25T11:32:51;13.00;91.90
20829;DHT22;10575;50.124;8.582;2023-04-25T11:35:18;13.30;91.80
20829;DHT22;10575;50.124;8.582;2023-04-25T11:37:43;13.80;90.90
20829;DHT22;10575;50.124;8.582;2023-04-25T11:40:10;14.10;89.30
20829;DHT22;10575;50.124;8.582;2023-04-25T11:42:37;14.80;90.20
20829;DHT22;10575;50.124;8.582;2023-04-25T11:45:04;15.00;85.00
20829;DHT22;10575;50.124;8.582;2023-04-25T11:47:32;15.00;85.50
20829;DHT22;10575;50.124;8.582;2023-04-25T11:49:59;15.20;84.10
20829;DHT22;10575;50.124;8.582;2023-04-25T11:52:35;15.70;84.30
20829;DHT22;10575;50.124;8.582;2023-04-25T11:55:00;16.10;81.70
20829;DHT22;10575;50.124;8.582;2023-04-25T11:57:26;15.90;82.70
20829;DHT22;10575;50.124;8.582;2023-04-25T11:59:51;15.60;81.80
20829;DHT22;10575;50.124;8.582;2023-04-25T12:02:26;15.50;83.60
20829;DHT22;10575;50.124;8.582;2023-04-25T12:04:52;15.40;84.30
20829;DHT22;10575;50.124;8.582;2023-04-25T12:07:18;15.40;83.20
20829;DHT22;10575;50.124;8.582;2023-04-25T12:09:51;15.00;82.40
20829;DHT22;10575;50.124;8.582;2023-04-25T12:12:17;14.90;83.20
20829;DHT22;10575;50.124;8.582;2023-04-25T12:14:47;15.00;84.00
20829;DHT22;10575;50.124;8.582;2023-04-25T12:17:14;15.10;85.10
20829;DHT22;10575;50.124;8.582;2023-04-25T12:19:39;15.00;82.80
20829;DHT22;10575;50.124;8.582;2023-04-25T12:22:22;14.50;84.10
20829;DHT22;10575;50.124;8.582;2023-04-25T12:24:48;14.10;86.40
20829;DHT22;10575;50.124;8.582;2023-04-25T12:27:17;13.50;86.40
20829;DHT22;10575;50.124;8.582;2023-04-25T12:29:54;13.40;87.70
20829;DHT22;10575;50.124;8.582;2023-04-25T12:32:19;13.20;89.90
20829;DHT22;10575;50.124;8.582;2023-04-25T12:34:45;12.90;89.60
20829;DHT22;10575;50.124;8.582;2023-04-25T12:37:11;13.00;89.90
20829;DHT22;10575;50.124;8.582;2023-04-25T12:39:37;13.00;90.30
20829;DHT22;10575;50.124;8.582;2023-04-25T12:42:02;13.20;90.80
20829;DHT22;10575;50.124;8.582;2023-04-25T12:44:28;13.40;89.00
20829;DHT22;10575;50.124;8.582;2023-04-25T12:46:54;13.40;88.70
20829;DHT22;10575;50.124;8.582;2023-04-25T12:49:20;13.50;90.40
20829;DHT22;10575;50.124;8.582;2023-04-25T12:51:46;13.80;89.60
20829;DHT22;10575;50.124;8.582;2023-04-25T12:54:12;14.10;89.50
20829;DHT22;10575;50.124;8.582;2023-04-25T12:56:37;14.20;86.70
20829;DHT22;10575;50.124;8.582;2023-04-25T12:59:03;14.60;84.80
20829;DHT22;10575;50.124;8.582;2023-04-25T13:01:29;14.90;85.30
20829;DHT22;10575;50.124;8.582;2023-04-25T13:03:55;15.30;81.10
20829;DHT22;10575;50.124;8.582;2023-04-25T13:06:21;15.40;81.70
20829;DHT22;10575;50.124;8.582;2023-04-25T13:08:47;15.40;81.50
20829;DHT22;10575;50.124;8.582;2023-04-25T13:11:13;15.50;79.80
20829;DHT22;10575;50.124;8.582;2023-04-25T13:13:40;15.60;78.30
20829;DHT22;10575;50.124;8.582;2023-04-25T13:16:06;15.60;79.80
20829;DHT22;10575;50.124;8.582;2023-04-25T13:18:32;15.20;78.00
20829;DHT22;10575;50.124;8.582;2023-04-25T13:20:59;15.00;78.80
20829;DHT22;10575;50.124;8.582;2023-04-25T13:23:26;14.80;81.10
20829;DHT22;10575;50.124;8.582;2023-04-25T13:25:52;15.00;81.20
20829;DHT22;10575;50.124;8.582;2023-04-25T13:28:18;15.20;82.10
20829;DHT22;10575;50.124;8.582;2023-04-25T13:30:44;15.10;80.70
20829;DHT22;10575;50.124;8.582;2023-04-25T13:33:09;15.40;78.20
20829;DHT22;10575;50.124;8.582;2023-04-25T13:35:36;15.00;78.50
20829;DHT22;10575;50.124;8.582;2023-04-25T13:38:02;15.00;82.60
20829;DHT22;10575;50.124;8.582;2023-04-25T13:40:28;15.00;82.90
20829;DHT22;10575;50.124;8.582;2023-04-25T13:42:53;15.20;83.30
20829;DHT22;10575;50.124;8.582;2023-04-25T13:45:20;15.30;82.90
20829;DHT22;10575;50.124;8.582;2023-04-25T13:47:45;15.60;82.90
20829;DHT22;10575;50.124;8.582;2023-04-25T13:50:13;15.90;79.10
20829;DHT22;10575;50.124;8.582;2023-04-25T13:52:39;15.80;79.80
20829;DHT22;10575;50.124;8.582;2023-04-25T13:55:05;15.70;79.10
20829;DHT22;10575;50.124;8.582;2023-04-25T13:57:32;15.60;81.40
20829;DHT22;10575;50.124;8.582;2023-04-25T13:59:58;15.50;79.80
20829;DHT22;10575;50.124;8.582;2023-04-25T14:02:24;15.40;79.00
20829;DHT22;10575;50.124;8.582;2023-04-25T14:04:50;15.60;77.50
20829;DHT22;10575;50.124;8.582;2023-04-25T14:07:15;15.70;78.70
20829;DHT22;10575;50.124;8.582;2023-04-25T14:09:41;16.00;77.10
20829;DHT22;10575;50.124;8.582;2023-04-25T14:12:07;16.30;77.60
20829;DHT22;10575;50.124;8.582;2023-04-25T14:14:33;16.50;75.00
20829;DHT22;10575;50.124;8.582;2023-04-25T14:16:58;16.00;74.40
20829;DHT22;10575;50.124;8.582;2023-04-25T14:19:24;15.60;75.40
20829;DHT22;10575;50.124;8.582;2023-04-25T14:21:50;15.30;77.00
20829;DHT22;10575;50.124;8.582;2023-04-25T14:24:15;15.10;78.50
20829;DHT22;10575;50.124;8.582;2023-04-25T14:26:41;15.10;79.90
20829;DHT22;10575;50.124;8.582;2023-04-25T14:29:08;15.10;76.30
20829;DHT22;10575;50.124;8.582;2023-04-25T14:31:34;15.20;78.60
20829;DHT22;10575;50.124;8.582;2023-04-25T14:34:01;15.30;77.80
20829;DHT22;10575;50.124;8.582;2023-04-25T14:36:30;15.10;76.20
20829;DHT22;10575;50.124;8.582;2023-04-25T14:38:56;14.70;76.80
20829;DHT22;10575;50.124;8.582;2023-04-25T14:41:22;14.60;77.60
20829;DHT22;10575;50.124;8.582;2023-04-25T14:43:48;14.70;79.20
20829;DHT22;10575;50.124;8.582;2023-04-25T14:46:14;14.90;78.10
20829;DHT22;10575;50.124;8.582;2023-04-25T14:48:39;15.00;78.60
20829;DHT22;10575;50.124;8.582;2023-04-25T14:51:05;14.90;78.20
20829;DHT22;10575;50.124;8.582;2023-04-25T14:53:31;15.00;77.20
20829;DHT22;10575;50.124;8.582;2023-04-25T14:55:57;14.70;77.80
20829;DHT22;10575;50.124;8.582;2023-04-25T14:58:23;14.30;79.60
20829;DHT22;10575;50.124;8.582;2023-04-25T15:00:48;14.40;80.10
20829;DHT22;10575;50.124;8.582;2023-04-25T15:03:14;14.80;79.90
20829;DHT22;10575;50.124;8.582;2023-04-25T15:05:41;15.00;79.50
20829;DHT22;10575;50.124;8.582;2023-04-25T15:08:07;14.70;77.90
20829;DHT22;10575;50.124;8.582;2023-04-25T15:10:33;14.30;78.60
20829;DHT22;10575;50.124;8.582;2023-04-25T15:12:58;14.00;82.20
20829;DHT22;10575;50.124;8.582;2023-04-25T15:15:24;13.90;82.00
20829;DHT22;10575;50.124;8.582;2023-04-25T15:17:50;14.10;81.90
20829;DHT22;10575;50.124;8.582;2023-04-25T15:20:16;14.50;81.60
20829;DHT22;10575;50.124;8.582;2023-04-25T15:22:43;14.40;81.60
20829;DHT22;10575;50.124;8.582;2023-04-25T15:25:11;14.30;82.00
20829;DHT22;10575;50.124;8.582;2023-04-25T15:27:39;14.30;82.00
20829;DHT22;10575;50.124;8.582;2023-04-25T15:30:08;14.30;82.10
20829;DHT22;10575;50.124;8.582;2023-04-25T15:32:34;14.20;82.20
20829;DHT22;10575;50.124;8.582;2023-04-25T15:35:02;14.20;82.70